sensor_id;sensor_type;location;lat;lon;timestamp;pressure;altitude;pressure_sealevel;temperature;humidity
60886;BME280;46736;41.654;-8.438;2022-09-02T00:01:18;100594.84;;;18.53;81.72
60886;BME280;46736;41.654;-8.438;2022-09-02T00:03:19;100606.03;;;18.51;82.52
60886;BME280;46736;41.654;-8.438;2022-09-02T00:05:20;100597.22;;;18.41;82.83
60886;BME280;46736;41.654;-8.438;2022-09-02T00:07:20;100608.53;;;18.48;82.94
60886;BME280;46736;41.654;-8.438;2022-09-02T00:09:23;100596.53;;;18.68;82.36
60886;BME280;46736;41.654;-8.438;2022-09-02T00:11:31;100586.16;;;18.70;81.85
60886;BME280;46736;41.654;-8.438;2022-09-02T00:13:35;100610.34;;;18.71;82.03
60886;BME280;46736;41.654;-8.438;2022-09-02T00:15:36;100601.91;;;18.73;82.14
60886;BME280;46736;41.654;-8.438;2022-09-02T00:17:37;100593.72;;;18.73;82.22
60886;BME280;46736;41.654;-8.438;2022-09-02T00:19:37;100596.91;;;18.80;82.02
60886;BME280;46736;41.654;-8.438;2022-09-02T00:21:38;100587.63;;;18.81;81.60
60886;BME280;46736;41.654;-8.438;2022-09-02T00:23:40;100588.94;;;18.84;81.58
60886;BME280;46736;41.654;-8.438;2022-09-02T00:25:42;100590.25;;;18.86;81.70
60886;BME280;46736;41.654;-8.438;2022-09-02T00:27:44;100593.00;;;18.86;82.04
60886;BME280;46736;41.654;-8.438;2022-09-02T00:29:45;100588.34;;;18.87;81.80
60886;BME280;46736;41.654;-8.438;2022-09-02T00:31:46;100589.28;;;18.96;81.60
60886;BME280;46736;41.654;-8.438;2022-09-02T00:33:47;100580.69;;;18.89;81.90
60886;BME280;46736;41.654;-8.438;2022-09-02T00:35:50;100580.97;;;18.87;81.71
60886;BME280;46736;41.654;-8.438;2022-09-02T00:37:51;100579.03;;;19.07;80.71
60886;BME280;46736;41.654;-8.438;2022-09-02T00:39:52;100588.50;;;18.95;81.15
60886;BME280;46736;41.654;-8.438;2022-09-02T00:41:53;100576.84;;;18.90;81.25
60886;BME280;46736;41.654;-8.438;2022-09-02T00:44:05;100572.34;;;18.99;81.09
60886;BME280;46736;41.654;-8.438;2022-09-02T00:46:07;100576.75;;;18.95;80.74
60886;BME280;46736;41.654;-8.438;2022-09-02T00:48:08;100589.97;;;18.88;81.51
60886;BME280;46736;41.654;-8.438;2022-09-02T00:50:10;100580.97;;;18.87;81.64
60886;BME280;46736;41.654;-8.438;2022-09-02T00:52:17;100582.59;;;18.88;81.49
60886;BME280;46736;41.654;-8.438;2022-09-02T00:54:21;100583.41;;;18.89;81.21
60886;BME280;46736;41.654;-8.438;2022-09-02T00:56:27;100579.09;;;18.88;81.23
60886;BME280;46736;41.654;-8.438;2022-09-02T00:58:32;100579.97;;;18.83;81.95
60886;BME280;46736;41.654;-8.438;2022-09-02T01:00:42;100581.22;;;18.91;81.92
60886;BME280;46736;41.654;-8.438;2022-09-02T01:02:49;100581.22;;;18.91;81.94
60886;BME280;46736;41.654;-8.438;2022-09-02T01:04:51;100576.19;;;18.98;81.60
60886;BME280;46736;41.654;-8.438;2022-09-02T01:06:56;100576.91;;;19.04;81.36
60886;BME280;46736;41.654;-8.438;2022-09-02T01:09:03;100568.00;;;18.98;81.37
60886;BME280;46736;41.654;-8.438;2022-09-02T01:11:06;100564.25;;;18.94;81.65
60886;BME280;46736;41.654;-8.438;2022-09-02T01:13:11;100570.31;;;19.05;81.52
60886;BME280;46736;41.654;-8.438;2022-09-02T01:15:13;100576.06;;;19.03;82.02
60886;BME280;46736;41.654;-8.438;2022-09-02T01:17:14;100573.66;;;19.01;81.67
60886;BME280;46736;41.654;-8.438;2022-09-02T01:19:22;100566.19;;;19.07;81.75
60886;BME280;46736;41.654;-8.438;2022-09-02T01:21:23;100562.97;;;19.05;82.03
60886;BME280;46736;41.654;-8.438;2022-09-02T01:23:24;100552.66;;;19.02;81.70
60886;BME280;46736;41.654;-8.438;2022-09-02T01:25:31;100547.44;;;19.19;80.97
60886;BME280;46736;41.654;-8.438;2022-09-02T01:27:31;100566.53;;;19.19;81.16
60886;BME280;46736;41.654;-8.438;2022-09-02T01:29:32;100558.53;;;19.09;81.49
60886;BME280;46736;41.654;-8.438;2022-09-02T01:31:33;100558.50;;;18.95;82.25
60886;BME280;46736;41.654;-8.438;2022-09-02T01:33:34;100563.97;;;18.95;82.58
60886;BME280;46736;41.654;-8.438;2022-09-02T01:35:35;100560.50;;;18.90;82.60
60886;BME280;46736;41.654;-8.438;2022-09-02T01:37:36;100563.81;;;18.87;83.00
60886;BME280;46736;41.654;-8.438;2022-09-02T01:39:38;100561.63;;;19.02;82.40
60886;BME280;46736;41.654;-8.438;2022-09-02T01:41:40;100562.66;;;19.07;81.70
60886;BME280;46736;41.654;-8.438;2022-09-02T01:43:40;100561.31;;;18.90;82.09
60886;BME280;46736;41.654;-8.438;2022-09-02T01:45:43;100560.41;;;18.95;81.84
60886;BME280;46736;41.654;-8.438;2022-09-02T01:47:46;100563.97;;;18.95;82.00
60886;BME280;46736;41.654;-8.438;2022-09-02T01:49:47;100563.13;;;18.95;82.00
60886;BME280;46736;41.654;-8.438;2022-09-02T01:51:49;100557.44;;;18.77;82.48
60886;BME280;46736;41.654;-8.438;2022-09-02T01:53:53;100563.22;;;18.90;82.40
60886;BME280;46736;41.654;-8.438;2022-09-02T01:55:54;100571.81;;;18.64;83.46
60886;BME280;46736;41.654;-8.438;2022-09-02T01:57:55;100565.34;;;18.74;82.95
60886;BME280;46736;41.654;-8.438;2022-09-02T01:59:57;100567.06;;;18.70;83.39
60886;BME280;46736;41.654;-8.438;2022-09-02T02:01:58;100572.28;;;18.66;83.60
60886;BME280;46736;41.654;-8.438;2022-09-02T02:03:59;100565.34;;;18.74;83.58
60886;BME280;46736;41.654;-8.438;2022-09-02T02:06:06;100565.53;;;18.64;83.99
60886;BME280;46736;41.654;-8.438;2022-09-02T02:08:10;100560.31;;;18.48;85.07
60886;BME280;46736;41.654;-8.438;2022-09-02T02:10:13;100561.06;;;18.54;84.82
60886;BME280;46736;41.654;-8.438;2022-09-02T02:12:15;100558.50;;;18.44;85.29
60886;BME280;46736;41.654;-8.438;2022-09-02T02:14:16;100551.72;;;18.41;85.73
60886;BME280;46736;41.654;-8.438;2022-09-02T02:16:20;100558.56;;;18.39;86.03
60886;BME280;46736;41.654;-8.438;2022-09-02T02:18:21;100553.38;;;18.56;85.30
60886;BME280;46736;41.654;-8.438;2022-09-02T02:20:22;100563.25;;;18.52;85.01
60886;BME280;46736;41.654;-8.438;2022-09-02T02:22:23;100552.72;;;18.45;85.04
60886;BME280;46736;41.654;-8.438;2022-09-02T02:24:24;100550.31;;;18.44;85.37
60886;BME280;46736;41.654;-8.438;2022-09-02T02:26:25;100557.31;;;18.31;86.15
60886;BME280;46736;41.654;-8.438;2022-09-02T02:28:26;100555.34;;;18.18;86.95
60886;BME280;46736;41.654;-8.438;2022-09-02T02:30:27;100553.09;;;18.01;87.64
60886;BME280;46736;41.654;-8.438;2022-09-02T02:32:28;100551.41;;;18.05;87.79
60886;BME280;46736;41.654;-8.438;2022-09-02T02:34:30;100556.00;;;18.09;87.79
60886;BME280;46736;41.654;-8.438;2022-09-02T02:36:31;100554.06;;;17.91;88.47
60886;BME280;46736;41.654;-8.438;2022-09-02T02:38:34;100563.63;;;17.88;88.79
60886;BME280;46736;41.654;-8.438;2022-09-02T02:40:35;100560.75;;;17.99;88.65
60886;BME280;46736;41.654;-8.438;2022-09-02T02:42:37;100557.34;;;17.88;89.18
60886;BME280;46736;41.654;-8.438;2022-09-02T02:44:40;100555.31;;;17.75;90.03
60886;BME280;46736;41.654;-8.438;2022-09-02T02:46:41;100553.44;;;17.70;90.10
60886;BME280;46736;41.654;-8.438;2022-09-02T02:48:42;100560.28;;;17.67;90.36
60886;BME280;46736;41.654;-8.438;2022-09-02T02:50:43;100555.91;;;17.71;89.64
60886;BME280;46736;41.654;-8.438;2022-09-02T02:52:45;100555.72;;;17.63;89.76
60886;BME280;46736;41.654;-8.438;2022-09-02T02:54:47;100552.22;;;17.62;89.79
60886;BME280;46736;41.654;-8.438;2022-09-02T02:56:48;100561.22;;;17.58;90.24
60886;BME280;46736;41.654;-8.438;2022-09-02T02:58:49;100559.16;;;17.49;90.09
60886;BME280;46736;41.654;-8.438;2022-09-02T03:00:49;100554.84;;;17.43;90.46
60886;BME280;46736;41.654;-8.438;2022-09-02T03:02:55;100553.88;;;17.34;90.95
60886;BME280;46736;41.654;-8.438;2022-09-02T03:04:56;100548.13;;;17.36;90.87
60886;BME280;46736;41.654;-8.438;2022-09-02T03:06:58;100556.13;;;17.27;91.16
60886;BME280;46736;41.654;-8.438;2022-09-02T03:08:58;100559.94;;;17.26;91.01
60886;BME280;46736;41.654;-8.438;2022-09-02T03:11:00;100556.16;;;17.22;91.19
60886;BME280;46736;41.654;-8.438;2022-09-02T03:13:04;100567.63;;;17.19;91.12
60886;BME280;46736;41.654;-8.438;2022-09-02T03:15:07;100555.16;;;17.13;91.13
60886;BME280;46736;41.654;-8.438;2022-09-02T03:17:11;100560.16;;;17.05;90.81
60886;BME280;46736;41.654;-8.438;2022-09-02T03:19:12;100551.22;;;17.00;90.22
60886;BME280;46736;41.654;-8.438;2022-09-02T03:21:14;100553.72;;;16.91;90.86
60886;BME280;46736;41.654;-8.438;2022-09-02T03:23:17;100539.66;;;16.84;91.12
60886;BME280;46736;41.654;-8.438;2022-09-02T03:25:22;100541.56;;;16.83;91.05
60886;BME280;46736;41.654;-8.438;2022-09-02T03:27:24;100550.88;;;16.77;90.71
60886;BME280;46736;41.654;-8.438;2022-09-02T03:29:25;100558.81;;;16.69;90.98
60886;BME280;46736;41.654;-8.438;2022-09-02T03:31:26;100544.22;;;16.54;91.36
60886;BME280;46736;41.654;-8.438;2022-09-02T03:33:29;100558.03;;;16.58;91.78
60886;BME280;46736;41.654;-8.438;2022-09-02T03:35:32;100548.28;;;16.57;92.08
60886;BME280;46736;41.654;-8.438;2022-09-02T03:37:34;100549.66;;;16.54;92.04
60886;BME280;46736;41.654;-8.438;2022-09-02T03:39:37;100556.78;;;16.50;91.70
60886;BME280;46736;41.654;-8.438;2022-09-02T03:41:41;100555.44;;;16.48;91.84
60886;BME280;46736;41.654;-8.438;2022-09-02T03:43:43;100556.16;;;16.58;92.64
60886;BME280;46736;41.654;-8.438;2022-09-02T03:45:44;100544.81;;;16.51;92.10
60886;BME280;46736;41.654;-8.438;2022-09-02T03:47:47;100548.13;;;16.43;91.70
60886;BME280;46736;41.654;-8.438;2022-09-02T03:49:56;100543.28;;;16.35;91.03
60886;BME280;46736;41.654;-8.438;2022-09-02T03:51:57;100548.19;;;16.33;90.96
60886;BME280;46736;41.654;-8.438;2022-09-02T03:53:58;100545.97;;;16.40;90.41
60886;BME280;46736;41.654;-8.438;2022-09-02T03:56:04;100536.19;;;16.39;89.75
60886;BME280;46736;41.654;-8.438;2022-09-02T03:58:06;100538.31;;;16.47;89.45
60886;BME280;46736;41.654;-8.438;2022-09-02T04:00:09;100542.13;;;16.46;89.70
60886;BME280;46736;41.654;-8.438;2022-09-02T04:02:14;100544.34;;;16.39;89.54
60886;BME280;46736;41.654;-8.438;2022-09-02T04:04:18;100547.41;;;16.27;89.93
60886;BME280;46736;41.654;-8.438;2022-09-02T04:06:23;100536.22;;;16.34;89.41
60886;BME280;46736;41.654;-8.438;2022-09-02T04:08:28;100535.69;;;16.32;89.85
60886;BME280;46736;41.654;-8.438;2022-09-02T04:10:33;100539.84;;;16.24;90.69
60886;BME280;46736;41.654;-8.438;2022-09-02T04:12:34;100542.31;;;16.15;89.28
60886;BME280;46736;41.654;-8.438;2022-09-02T04:14:35;100540.75;;;16.04;88.56
60886;BME280;46736;41.654;-8.438;2022-09-02T04:16:37;100545.13;;;15.95;88.29
60886;BME280;46736;41.654;-8.438;2022-09-02T04:18:40;100539.50;;;15.86;89.52
60886;BME280;46736;41.654;-8.438;2022-09-02T04:20:43;100546.81;;;15.91;91.22
60886;BME280;46736;41.654;-8.438;2022-09-02T04:22:44;100538.84;;;16.05;91.56
60886;BME280;46736;41.654;-8.438;2022-09-02T04:24:44;100541.09;;;15.87;91.65
60886;BME280;46736;41.654;-8.438;2022-09-02T04:26:46;100528.44;;;15.78;92.56
60886;BME280;46736;41.654;-8.438;2022-09-02T04:28:50;100539.28;;;15.72;92.97
60886;BME280;46736;41.654;-8.438;2022-09-02T04:30:51;100547.69;;;15.76;92.36
60886;BME280;46736;41.654;-8.438;2022-09-02T04:32:52;100540.66;;;15.70;91.95
60886;BME280;46736;41.654;-8.438;2022-09-02T04:34:54;100542.00;;;15.62;92.35
60886;BME280;46736;41.654;-8.438;2022-09-02T04:36:55;100542.50;;;15.74;90.87
60886;BME280;46736;41.654;-8.438;2022-09-02T04:38:56;100544.69;;;15.78;90.34
60886;BME280;46736;41.654;-8.438;2022-09-02T04:41:08;100551.19;;;15.66;90.34
60886;BME280;46736;41.654;-8.438;2022-09-02T04:43:10;100551.22;;;15.61;90.38
60886;BME280;46736;41.654;-8.438;2022-09-02T04:45:11;100546.66;;;15.51;90.88
60886;BME280;46736;41.654;-8.438;2022-09-02T04:47:13;100555.00;;;15.75;90.45
60886;BME280;46736;41.654;-8.438;2022-09-02T04:49:14;100548.00;;;15.54;90.37
60886;BME280;46736;41.654;-8.438;2022-09-02T04:51:20;100564.53;;;15.52;90.63
60886;BME280;46736;41.654;-8.438;2022-09-02T04:53:23;100561.56;;;15.49;90.46
60886;BME280;46736;41.654;-8.438;2022-09-02T04:55:26;100560.72;;;15.59;90.40
60886;BME280;46736;41.654;-8.438;2022-09-02T04:57:27;100557.75;;;15.55;90.24
60886;BME280;46736;41.654;-8.438;2022-09-02T04:59:31;100551.53;;;15.49;91.46
60886;BME280;46736;41.654;-8.438;2022-09-02T05:01:40;100559.66;;;15.54;91.62
60886;BME280;46736;41.654;-8.438;2022-09-02T05:03:48;100564.28;;;15.54;91.16
60886;BME280;46736;41.654;-8.438;2022-09-02T05:05:59;100563.44;;;15.53;90.59
60886;BME280;46736;41.654;-8.438;2022-09-02T05:08:03;100563.44;;;15.69;89.78
60886;BME280;46736;41.654;-8.438;2022-09-02T05:10:07;100557.72;;;15.65;89.22
60886;BME280;46736;41.654;-8.438;2022-09-02T05:12:11;100566.91;;;15.74;88.92
60886;BME280;46736;41.654;-8.438;2022-09-02T05:14:18;100559.88;;;15.79;89.01
60886;BME280;46736;41.654;-8.438;2022-09-02T05:16:25;100567.16;;;15.88;89.16
60886;BME280;46736;41.654;-8.438;2022-09-02T05:18:28;100571.69;;;16.03;88.87
60886;BME280;46736;41.654;-8.438;2022-09-02T05:20:32;100569.81;;;15.99;89.04
60886;BME280;46736;41.654;-8.438;2022-09-02T05:22:35;100568.94;;;16.08;89.13
60886;BME280;46736;41.654;-8.438;2022-09-02T05:24:38;100572.47;;;16.14;89.25
60886;BME280;46736;41.654;-8.438;2022-09-02T05:26:44;100573.81;;;16.16;89.57
60886;BME280;46736;41.654;-8.438;2022-09-02T05:28:46;100563.75;;;16.17;89.46
60886;BME280;46736;41.654;-8.438;2022-09-02T05:30:47;100561.78;;;16.28;89.34
60886;BME280;46736;41.654;-8.438;2022-09-02T05:32:50;100561.78;;;16.28;89.24
60886;BME280;46736;41.654;-8.438;2022-09-02T05:34:50;100566.19;;;16.18;89.53
60886;BME280;46736;41.654;-8.438;2022-09-02T05:36:54;100568.00;;;16.33;90.15
60886;BME280;46736;41.654;-8.438;2022-09-02T05:38:59;100557.16;;;16.28;90.49
60886;BME280;46736;41.654;-8.438;2022-09-02T05:41:05;100566.13;;;16.29;90.78
60886;BME280;46736;41.654;-8.438;2022-09-02T05:43:08;100560.66;;;16.34;90.79
60886;BME280;46736;41.654;-8.438;2022-09-02T05:45:13;100560.94;;;16.37;90.79
60886;BME280;46736;41.654;-8.438;2022-09-02T05:47:14;100562.00;;;16.36;91.28
60886;BME280;46736;41.654;-8.438;2022-09-02T05:49:15;100571.19;;;16.46;91.46
60886;BME280;46736;41.654;-8.438;2022-09-02T05:51:23;100564.13;;;16.45;92.12
60886;BME280;46736;41.654;-8.438;2022-09-02T05:53:26;100568.47;;;16.46;91.93
60886;BME280;46736;41.654;-8.438;2022-09-02T05:55:28;100575.00;;;16.39;92.26
60886;BME280;46736;41.654;-8.438;2022-09-02T05:57:30;100574.19;;;16.39;92.62
60886;BME280;46736;41.654;-8.438;2022-09-02T05:59:37;100578.56;;;16.40;92.76
60886;BME280;46736;41.654;-8.438;2022-09-02T06:01:40;100570.13;;;16.41;92.94
60886;BME280;46736;41.654;-8.438;2022-09-02T06:03:40;100574.44;;;16.48;92.40
60886;BME280;46736;41.654;-8.438;2022-09-02T06:05:41;100576.31;;;16.47;92.80
60886;BME280;46736;41.654;-8.438;2022-09-02T06:07:50;100578.75;;;16.49;93.61
60886;BME280;46736;41.654;-8.438;2022-09-02T06:09:54;100583.09;;;16.50;94.08
60886;BME280;46736;41.654;-8.438;2022-09-02T06:11:59;100586.06;;;16.53;94.23
60886;BME280;46736;41.654;-8.438;2022-09-02T06:14:06;100582.78;;;16.56;94.44
60886;BME280;46736;41.654;-8.438;2022-09-02T06:16:17;100581.91;;;16.66;94.26
60886;BME280;46736;41.654;-8.438;2022-09-02T06:18:18;100583.78;;;16.66;94.56
60886;BME280;46736;41.654;-8.438;2022-09-02T06:20:23;100582.97;;;16.65;94.77
60886;BME280;46736;41.654;-8.438;2022-09-02T06:22:24;100577.69;;;16.84;93.42
60886;BME280;46736;41.654;-8.438;2022-09-02T06:24:28;100584.69;;;16.95;93.46
60886;BME280;46736;41.654;-8.438;2022-09-02T06:26:32;100572.47;;;16.93;92.36
60886;BME280;46736;41.654;-8.438;2022-09-02T06:28:35;100578.75;;;16.88;92.84
60886;BME280;46736;41.654;-8.438;2022-09-02T06:30:38;100586.09;;;16.88;93.10
60886;BME280;46736;41.654;-8.438;2022-09-02T06:32:40;100585.84;;;16.84;93.66
60886;BME280;46736;41.654;-8.438;2022-09-02T06:34:44;100588.28;;;16.86;92.90
60886;BME280;46736;41.654;-8.438;2022-09-02T06:36:46;100581.00;;;16.81;93.47
60886;BME280;46736;41.654;-8.438;2022-09-02T06:38:50;100591.53;;;16.88;93.32
60886;BME280;46736;41.654;-8.438;2022-09-02T06:40:53;100590.94;;;16.96;92.53
60886;BME280;46736;41.654;-8.438;2022-09-02T06:43:01;100585.94;;;17.08;92.06
60886;BME280;46736;41.654;-8.438;2022-09-02T06:45:06;100594.84;;;17.14;91.52
60886;BME280;46736;41.654;-8.438;2022-09-02T06:47:07;100592.63;;;17.21;91.67
60886;BME280;46736;41.654;-8.438;2022-09-02T06:49:10;100598.28;;;17.24;91.12
60886;BME280;46736;41.654;-8.438;2022-09-02T06:51:17;100601.28;;;17.23;90.98
60886;BME280;46736;41.654;-8.438;2022-09-02T06:53:18;100595.66;;;17.14;91.13
60886;BME280;46736;41.654;-8.438;2022-09-02T06:55:19;100594.22;;;17.22;90.91
60886;BME280;46736;41.654;-8.438;2022-09-02T06:57:20;100602.81;;;17.34;90.35
60886;BME280;46736;41.654;-8.438;2022-09-02T06:59:21;100599.00;;;17.35;90.13
60886;BME280;46736;41.654;-8.438;2022-09-02T07:01:29;100601.66;;;17.64;88.45
60886;BME280;46736;41.654;-8.438;2022-09-02T07:03:30;100606.19;;;17.74;88.01
60886;BME280;46736;41.654;-8.438;2022-09-02T07:05:46;100612.81;;;17.92;87.43
60886;BME280;46736;41.654;-8.438;2022-09-02T07:07:49;100609.38;;;18.05;86.62
60886;BME280;46736;41.654;-8.438;2022-09-02T07:09:52;100605.66;;;18.20;84.74
60886;BME280;46736;41.654;-8.438;2022-09-02T07:11:56;100614.03;;;18.43;83.43
60886;BME280;46736;41.654;-8.438;2022-09-02T07:13:56;100609.78;;;18.55;82.80
60886;BME280;46736;41.654;-8.438;2022-09-02T07:16:01;100617.28;;;18.64;82.33
60886;BME280;46736;41.654;-8.438;2022-09-02T07:18:02;100621.94;;;18.63;81.76
60886;BME280;46736;41.654;-8.438;2022-09-02T07:20:09;100622.31;;;18.75;81.60
60886;BME280;46736;41.654;-8.438;2022-09-02T07:22:16;100626.63;;;18.57;81.68
60886;BME280;46736;41.654;-8.438;2022-09-02T07:24:18;100630.56;;;18.51;82.28
60886;BME280;46736;41.654;-8.438;2022-09-02T07:26:19;100634.81;;;18.39;82.57
60886;BME280;46736;41.654;-8.438;2022-09-02T07:28:40;100612.72;;;18.21;82.77
60886;BME280;46736;41.654;-8.438;2022-09-02T07:30:43;100624.28;;;18.32;83.13
60886;BME280;46736;41.654;-8.438;2022-09-02T07:32:47;100642.25;;;18.52;82.39
60886;BME280;46736;41.654;-8.438;2022-09-02T07:34:53;100636.59;;;18.67;81.53
60886;BME280;46736;41.654;-8.438;2022-09-02T07:36:54;100628.19;;;18.45;82.58
60886;BME280;46736;41.654;-8.438;2022-09-02T07:38:57;100645.91;;;18.42;82.49
60886;BME280;46736;41.654;-8.438;2022-09-02T07:40:58;100662.72;;;18.49;82.58
60886;BME280;46736;41.654;-8.438;2022-09-02T07:43:03;100656.75;;;18.66;82.11
60886;BME280;46736;41.654;-8.438;2022-09-02T07:45:08;100642.66;;;18.21;83.80
60886;BME280;46736;41.654;-8.438;2022-09-02T07:47:12;100650.69;;;18.12;83.90
60886;BME280;46736;41.654;-8.438;2022-09-02T07:49:17;100646.19;;;18.22;83.85
60886;BME280;46736;41.654;-8.438;2022-09-02T07:51:19;100657.47;;;18.53;82.72
60886;BME280;46736;41.654;-8.438;2022-09-02T07:53:25;100662.19;;;18.66;81.87
60886;BME280;46736;41.654;-8.438;2022-09-02T08:03:20;100668.81;;;19.17;79.06
60886;BME280;46736;41.654;-8.438;2022-09-02T08:05:27;100655.72;;;19.19;78.49
60886;BME280;46736;41.654;-8.438;2022-09-02T08:07:28;100662.81;;;19.34;78.22
60886;BME280;46736;41.654;-8.438;2022-09-02T08:09:32;100658.56;;;19.41;77.63
60886;BME280;46736;41.654;-8.438;2022-09-02T08:11:33;100660.41;;;19.46;77.46
60886;BME280;46736;41.654;-8.438;2022-09-02T08:13:37;100654.06;;;19.64;76.58
60886;BME280;46736;41.654;-8.438;2022-09-02T08:20:16;100635.63;;;19.75;75.10
60886;BME280;46736;41.654;-8.438;2022-09-02T08:22:17;100661.09;;;19.98;74.59
60886;BME280;46736;41.654;-8.438;2022-09-02T08:24:17;100660.81;;;20.00;74.64
60886;BME280;46736;41.654;-8.438;2022-09-02T08:26:18;100670.91;;;20.13;73.76
60886;BME280;46736;41.654;-8.438;2022-09-02T08:28:19;100644.34;;;20.41;72.42
60886;BME280;46736;41.654;-8.438;2022-09-02T08:30:22;100615.56;;;20.71;70.21
60886;BME280;46736;41.654;-8.438;2022-09-02T08:34:58;100672.69;;;23.12;63.00
60886;BME280;46736;41.654;-8.438;2022-09-02T08:44:23;100686.31;;;30.52;42.37
60886;BME280;46736;41.654;-8.438;2022-09-02T08:51:08;100693.72;;;32.32;37.62
60886;BME280;46736;41.654;-8.438;2022-09-02T08:55:20;100702.56;;;33.32;35.76
60886;BME280;46736;41.654;-8.438;2022-09-02T08:57:25;100703.78;;;33.60;34.55
60886;BME280;46736;41.654;-8.438;2022-09-02T08:59:27;100707.00;;;34.15;34.41
60886;BME280;46736;41.654;-8.438;2022-09-02T09:03:47;100690.53;;;34.71;33.02
60886;BME280;46736;41.654;-8.438;2022-09-02T09:15:54;100690.25;;;34.12;33.50
60886;BME280;46736;41.654;-8.438;2022-09-02T09:18:00;100699.34;;;34.55;33.06
60886;BME280;46736;41.654;-8.438;2022-09-02T09:20:06;100700.97;;;35.41;31.66
60886;BME280;46736;41.654;-8.438;2022-09-02T09:22:14;100681.66;;;35.57;31.42
60886;BME280;46736;41.654;-8.438;2022-09-02T09:24:28;100672.25;;;35.82;30.98
60886;BME280;46736;41.654;-8.438;2022-09-02T09:26:33;100688.38;;;36.50;29.87
60886;BME280;46736;41.654;-8.438;2022-09-02T09:28:47;100681.38;;;37.03;28.17
60886;BME280;46736;41.654;-8.438;2022-09-02T09:30:48;100704.88;;;37.13;28.73
60886;BME280;46736;41.654;-8.438;2022-09-02T09:32:52;100675.06;;;36.27;29.44
60886;BME280;46736;41.654;-8.438;2022-09-02T09:36:59;100680.56;;;36.34;29.27
60886;BME280;46736;41.654;-8.438;2022-09-02T09:41:21;100653.00;;;36.67;28.68
60886;BME280;46736;41.654;-8.438;2022-09-02T09:43:28;100654.06;;;37.07;28.67
60886;BME280;46736;41.654;-8.438;2022-09-02T09:47:32;100639.56;;;36.17;29.04
60886;BME280;46736;41.654;-8.438;2022-09-02T09:49:34;100678.44;;;36.45;29.46
60886;BME280;46736;41.654;-8.438;2022-09-02T09:51:35;100640.72;;;36.57;28.46
60886;BME280;46736;41.654;-8.438;2022-09-02T09:53:36;100684.16;;;37.30;27.47
60886;BME280;46736;41.654;-8.438;2022-09-02T09:55:50;100645.06;;;37.94;26.54
60886;BME280;46736;41.654;-8.438;2022-09-02T09:57:52;100630.59;;;38.35;26.51
60886;BME280;46736;41.654;-8.438;2022-09-02T10:05:10;100662.25;;;35.32;30.21
60886;BME280;46736;41.654;-8.438;2022-09-02T10:07:34;100622.75;;;34.53;31.38
60886;BME280;46736;41.654;-8.438;2022-09-02T10:14:47;100650.84;;;37.09;26.83
60886;BME280;46736;41.654;-8.438;2022-09-02T10:22:12;100647.59;;;33.40;31.66
60886;BME280;46736;41.654;-8.438;2022-09-02T10:26:53;100619.69;;;31.16;35.46
60886;BME280;46736;41.654;-8.438;2022-09-02T10:29:50;100636.84;;;30.01;38.15
60886;BME280;46736;41.654;-8.438;2022-09-02T10:42:42;100625.75;;;28.31;41.51
60886;BME280;46736;41.654;-8.438;2022-09-02T10:51:09;100613.72;;;27.88;43.17
60886;BME280;46736;41.654;-8.438;2022-09-02T10:55:24;100615.00;;;28.46;42.72
60886;BME280;46736;41.654;-8.438;2022-09-02T10:57:32;100610.03;;;28.94;41.43
60886;BME280;46736;41.654;-8.438;2022-09-02T10:59:39;100613.44;;;29.07;40.27
60886;BME280;46736;41.654;-8.438;2022-09-02T11:01:53;100592.66;;;29.16;40.67
60886;BME280;46736;41.654;-8.438;2022-09-02T11:06:20;100595.50;;;30.19;38.14
60886;BME280;46736;41.654;-8.438;2022-09-02T11:10:40;100584.69;;;33.57;32.23
60886;BME280;46736;41.654;-8.438;2022-09-02T11:12:48;100583.22;;;32.43;33.74
60886;BME280;46736;41.654;-8.438;2022-09-02T11:17:01;100586.16;;;32.82;32.45
60886;BME280;46736;41.654;-8.438;2022-09-02T11:21:26;100592.38;;;32.40;33.81
60886;BME280;46736;41.654;-8.438;2022-09-02T11:26:01;100582.06;;;30.85;35.77
60886;BME280;46736;41.654;-8.438;2022-09-02T11:30:25;100587.44;;;30.10;37.10
60886;BME280;46736;41.654;-8.438;2022-09-02T11:32:34;100577.63;;;29.63;37.84
60886;BME280;46736;41.654;-8.438;2022-09-02T11:34:43;100575.09;;;29.78;37.68
60886;BME280;46736;41.654;-8.438;2022-09-02T11:36:46;100577.72;;;29.94;36.09
60886;BME280;46736;41.654;-8.438;2022-09-02T11:38:53;100575.94;;;30.39;36.56
60886;BME280;46736;41.654;-8.438;2022-09-02T11:45:28;100549.03;;;30.13;36.97
60886;BME280;46736;41.654;-8.438;2022-09-02T11:47:55;100550.22;;;31.16;35.43
60886;BME280;46736;41.654;-8.438;2022-09-02T11:54:27;100544.56;;;31.50;34.20
60886;BME280;46736;41.654;-8.438;2022-09-02T11:56:38;100561.41;;;30.83;35.60
60886;BME280;46736;41.654;-8.438;2022-09-02T11:58:43;100561.91;;;28.60;39.96
60886;BME280;46736;41.654;-8.438;2022-09-02T12:03:08;100567.94;;;28.85;40.46
